MiSS Danielle — WDG8493 — position and weather

sailwx.info

Track history (hours):
 
Tides and Currents Weather Stations Pressure Air Temp Water Temp Dewpoint Dewpoint Depression Visibility Wind Speed Wind Dir Waves Ship Positions

MiSS Danielle

Owner: Chem Carriers Towing, LLC, Sunshine, LA. More information available from US FCC via Universal Licensing System and Coast Guard Vessel Documentation Center.

Last reported at 2017-Dec-21 20:23 UTC. Time now 2018-Jan-18 07:23 UTC.
Position N 29°33' W 090°24'.
Warning: this ship's position is 27 days out of date.

Length 24 m; draft 2.9 m.

Type: Towing. MMSI: 367578080.

Date/timePositionNaut miles runAvg speedWind from/ knotsBaromVisibWave heightAir tempDewpointWater temp
2017-Dec-21 20:23N 29°33' W 090°24'3 6.2
2017-Dec-21 19:59N 29°33' W 090°27'3 6.2
2017-Dec-21 19:30N 29°34' W 090°31'3 6.0
2017-Dec-21 19:00N 29°34' W 090°34'3 5.5
2017-Dec-21 18:30N 29°35' W 090°37'3 5.6
2017-Dec-21 18:00N 29°36' W 090°40'2 3.7
2017-Dec-21 17:30N 29°37' W 090°42'1 2.7
2017-Dec-21 17:00N 29°36' W 090°43'2 3.2
2017-Dec-21 16:30N 29°34' W 090°43'2 4.7
2017-Dec-21 16:00N 29°33' W 090°45'3 5.9
2017-Dec-21 15:30N 29°32' W 090°49'3 6.2
2017-Dec-21 14:59N 29°32' W 090°52'2 3.5
2017-Dec-21 14:30N 29°33' W 090°54'0 0.0
2017-Dec-21 14:00N 29°33' W 090°54'0 0.0
2017-Dec-21 13:30N 29°33' W 090°54'0 0.0
2017-Dec-21 13:00N 29°33' W 090°54'0 0.0
2017-Dec-21 12:30N 29°33' W 090°54'0 0.0
2017-Dec-21 12:00N 29°33' W 090°54'0 0.0
2017-Dec-21 11:30N 29°33' W 090°54'0 0.0
2017-Dec-21 11:00N 29°33' W 090°54'0 0.0
2017-Dec-21 10:30N 29°33' W 090°54'0 0.0
2017-Dec-21 10:00N 29°33' W 090°54'0 0.0
2017-Dec-21 09:30N 29°33' W 090°54'0 0.0
2017-Dec-21 09:00N 29°33' W 090°54'0 0.0
2017-Dec-21 08:30N 29°33' W 090°54'0 0.0
2017-Dec-21 08:00N 29°33' W 090°54'0 0.0
2017-Dec-21 07:30N 29°33' W 090°54'0 0.0
2017-Dec-21 07:00N 29°33' W 090°54'0 0.0
2017-Dec-21 06:30N 29°33' W 090°54'0 0.0
2017-Dec-21 06:00N 29°33' W 090°54'1 1.4
2017-Dec-21 05:30N 29°33' W 090°55'3 6.4
2017-Dec-21 04:59N 29°35' W 090°58'3 5.9
2017-Dec-21 04:30N 29°37' W 090°60'3 6.2
2017-Dec-21 03:59N 29°37' W 091°04'46 4.5
2017-Dec-20 17:46N 29°51' W 091°54'2 6.5
2017-Dec-20 17:30N 29°51' W 091°57'3 6.3
2017-Dec-20 17:00N 29°50' W 091°60'3 6.4
2017-Dec-20 16:30N 29°49' W 092°03'3 5.5
2017-Dec-20 16:00N 29°48' W 092°06'3 5.7
2017-Dec-20 15:30N 29°47' W 092°10'3 5.1
2017-Dec-20 15:00N 29°47' W 092°12'2 4.2
2017-Dec-20 14:30N 29°48' W 092°15'3 5.3
2017-Dec-20 14:00N 29°49' W 092°17'2 3.8
2017-Dec-20 13:30N 29°50' W 092°19'2 3.2
2017-Dec-20 12:58N 29°51' W 092°21'38 2.0
2017-Dec-19 18:26N 29°56' W 093°04'2 5.2
2017-Dec-19 18:00N 29°56' W 093°07'3 5.2
2017-Dec-19 17:30N 29°57' W 093°10'3 5.4
2017-Dec-19 17:00N 29°59' W 093°12'2 3.6
2017-Dec-19 16:30N 29°60' W 093°13'0 0.0
2017-Dec-19 16:00N 29°60' W 093°13'1 1.9
2017-Dec-19 15:30N 30°01' W 093°14'2 4.6
2017-Dec-19 15:00N 30°02' W 093°16'2 4.8
2017-Dec-19 14:30N 30°05' W 093°17'0 0.2
2017-Dec-19 14:00N 30°05' W 093°17'0 0.1
2017-Dec-19 13:30N 30°05' W 093°17'0 0.1
2017-Dec-19 13:01N 30°05' W 093°17'0 0.9
2017-Dec-19 12:31N 30°05' W 093°17'0 0.1
2017-Dec-19 12:00N 30°05' W 093°17'0 0.0
2017-Dec-19 11:30N 30°05' W 093°17'0 0.0
2017-Dec-19 11:00N 30°05' W 093°17'0 0.0
2017-Dec-19 10:30N 30°05' W 093°17'0 0.0
2017-Dec-19 10:00N 30°05' W 093°17'0 0.1
2017-Dec-19 09:30N 30°05' W 093°17'1 1.4
2017-Dec-19 09:00N 30°05' W 093°18'1 1.5
2017-Dec-19 08:30N 30°06' W 093°18'0 0.1
2017-Dec-19 08:00N 30°06' W 093°18'0 0.0
2017-Dec-19 07:30N 30°06' W 093°18'0 0.0
2017-Dec-19 07:00N 30°06' W 093°18'0 0.0
2017-Dec-19 06:31N 30°06' W 093°18'0 0.0
2017-Dec-19 06:00N 30°06' W 093°18'1 1.0
2017-Dec-19 05:30N 30°06' W 093°19'0 0.4
2017-Dec-19 05:00N 30°06' W 093°19'0 0.0
2017-Dec-19 04:30N 30°06' W 093°19'0 0.0
2017-Dec-19 04:00N 30°06' W 093°19'0 0.0
2017-Dec-19 03:30N 30°06' W 093°19'0 0.0
2017-Dec-19 03:00N 30°06' W 093°19'0 0.0
2017-Dec-19 02:30N 30°06' W 093°19'0 0.0
2017-Dec-19 02:00N 30°06' W 093°19'0 0.1
2017-Dec-19 01:30N 30°06' W 093°19'0 0.0
2017-Dec-19 01:00N 30°06' W 093°19'0 0.0
2017-Dec-19 00:30N 30°06' W 093°19'0 0.0
2017-Dec-19 00:00N 30°06' W 093°19'0 0.0
2017-Dec-18 23:30N 30°06' W 093°19'0 0.0
2017-Dec-18 23:00N 30°06' W 093°19'0 0.0
2017-Dec-18 22:30N 30°06' W 093°19'0 0.2
2017-Dec-18 22:00N 30°06' W 093°19'3 5.2
2017-Dec-18 21:30N 30°04' W 093°21'2 4.6
2017-Dec-18 21:00N 30°04' W 093°24'3 5.5
2017-Dec-18 20:30N 30°04' W 093°27'3 5.6
2017-Dec-18 20:00N 30°04' W 093°30'3 5.1
2017-Dec-18 19:30N 30°04' W 093°33'3 5.6
2017-Dec-18 19:00N 30°04' W 093°36'3 5.3
2017-Dec-18 18:30N 30°04' W 093°39'2 3.5
2017-Dec-18 18:00N 30°04' W 093°41'70 4.1
2017-Dec-18 00:57N 29°28' W 094°51'3 5.9
2017-Dec-18 00:30N 29°30' W 094°53'3 5.9
2017-Dec-18 00:00N 29°33' W 094°54'3 6.5
2017-Dec-17 23:30N 29°35' W 094°56'3 6.4
2017-Dec-17 23:00N 29°38' W 094°58'3 6.5
2017-Dec-17 22:30N 29°41' W 094°59'3 5.8
2017-Dec-17 22:00N 29°44' W 095°01'3 6.0
2017-Dec-17 21:30N 29°45' W 095°04'2 3.5
2017-Dec-17 20:58N 29°46' W 095°06'1 1.1
2017-Dec-17 20:30N 29°47' W 095°06'0 0.1
2017-Dec-17 19:57N 29°47' W 095°06'0 0.1
2017-Dec-17 17:57N 29°47' W 095°06'0 0.1
2017-Dec-17 14:05N 29°47' W 095°06'0 0.0
2017-Dec-17 13:59N 29°47' W 095°06'0 0.0
2017-Dec-17 13:20N 29°47' W 095°06'1 0.7
2017-Dec-17 12:21N 29°46' W 095°06'0 0.0
2017-Dec-17 08:56N 29°46' W 095°06'2 3.5
2017-Dec-17 08:30N 29°45' W 095°06'3 6.6
2017-Dec-17 08:00N 29°45' W 095°10'3 6.6
2017-Dec-17 07:30N 29°44' W 095°14'0 0.4
2017-Dec-17 07:00N 29°44' W 095°14'0 0.0
2017-Dec-17 06:30N 29°44' W 095°14'0 0.0
2017-Dec-17 06:00N 29°44' W 095°14'0 0.0
2017-Dec-17 05:29N 29°44' W 095°14'0 0.0
2017-Dec-17 05:00N 29°44' W 095°14'0 0.0
2017-Dec-17 04:30N 29°44' W 095°14'0 0.0
2017-Dec-17 03:59N 29°44' W 095°14'0 0.0
2017-Dec-17 03:30N 29°44' W 095°14'0 0.0
2017-Dec-17 02:58N 29°44' W 095°14'0 0.0
2017-Dec-17 02:15N 29°44' W 095°14'0 0.0
2017-Dec-17 01:30N 29°44' W 095°14'0 0.0
2017-Dec-17 01:00N 29°44' W 095°14'0 0.0
2017-Dec-17 00:26N 29°44' W 095°14'0 0.0
2017-Dec-16 23:56N 29°44' W 095°14'0 0.0
2017-Dec-16 23:21N 29°44' W 095°14'0 0.0
2017-Dec-16 22:55N 29°44' W 095°14'0 0.0
2017-Dec-16 22:22N 29°44' W 095°14'0 0.0
2017-Dec-16 22:00N 29°44' W 095°14'0 0.0
2017-Dec-16 21:30N 29°44' W 095°14'0 0.0
2017-Dec-16 20:54N 29°44' W 095°14'0 0.0
2017-Dec-16 20:25N 29°44' W 095°14'1 1.5
2017-Dec-16 20:00N 29°43' W 095°14'1 1.2
2017-Dec-16 19:30N 29°43' W 095°14'2 4.4
2017-Dec-16 18:58N 29°45' W 095°11'4 6.6
2017-Dec-16 18:21N 29°44' W 095°07'2 0.8
2017-Dec-16 15:58N 29°46' W 095°06'1 0.3
2017-Dec-16 14:00N 29°47' W 095°06'0 0.0
2017-Dec-16 11:12N 29°47' W 095°06'0 0.0
2017-Dec-16 10:50N 29°47' W 095°06'0 0.0
2017-Dec-16 09:54N 29°47' W 095°06'0 0.0
2017-Dec-16 09:22N 29°47' W 095°06'0 0.0
2017-Dec-15 00:07N 29°47' W 095°06'0 0.0
2017-Dec-14 17:47N 29°47' W 095°06'0 0.1
2017-Dec-14 15:37N 29°47' W 095°06'0 0.0
2017-Dec-14 15:00N 29°47' W 095°06'0 0.0
2017-Dec-14 12:57N 29°47' W 095°06'0 0.0
2017-Dec-14 12:19N 29°47' W 095°06'0 0.0
2017-Dec-14 10:13N 29°47' W 095°06'0 0.0
2017-Dec-14 09:58N 29°47' W 095°06'0 0.0
2017-Dec-14 09:26N 29°47' W 095°06'0 0.0
2017-Dec-14 08:49N 29°47' W 095°06'0 0.0
2017-Dec-14 08:24N 29°47' W 095°06'0 0.0
2017-Dec-14 07:20N 29°47' W 095°06'0 0.0
2017-Dec-14 06:59N 29°47' W 095°06'0 0.0
2017-Dec-14 06:29N 29°47' W 095°06'0 0.0
2017-Dec-14 05:54N 29°47' W 095°06'0 0.0
2017-Dec-14 05:27N 29°47' W 095°06'0 0.0
2017-Dec-14 05:00N 29°47' W 095°06'0 0.0
2017-Dec-14 03:57N 29°47' W 095°06'0 0.0
2017-Dec-14 03:15N 29°47' W 095°06'0 0.0
2017-Dec-14 03:00N 29°47' W 095°06'0 0.0
2017-Dec-14 02:28N 29°47' W 095°06'0 0.0
2017-Dec-14 01:51N 29°47' W 095°06'0 0.0
2017-Dec-13 23:35N 29°47' W 095°06'1 0.1
2017-Dec-13 15:18N 29°46' W 095°06'1 1.6
2017-Dec-13 14:58N 29°47' W 095°06'0 0.0
2017-Dec-13 14:25N 29°47' W 095°06'0 0.0
2017-Dec-13 13:54N 29°47' W 095°06'0 0.0
2017-Dec-13 13:30N 29°47' W 095°06'0 0.0
2017-Dec-13 12:55N 29°47' W 095°06'0 0.0
2017-Dec-13 12:13N 29°47' W 095°06'0 0.0
2017-Dec-13 12:00N 29°47' W 095°06'0 0.0
2017-Dec-13 11:16N 29°47' W 095°06'0 0.0
2017-Dec-13 10:56N 29°47' W 095°06'0 0.0
2017-Dec-13 10:27N 29°47' W 095°06'0 0.0
2017-Dec-13 10:00N 29°47' W 095°06'0 0.0
2017-Dec-13 06:31N 29°47' W 095°06'0 0.0
2017-Dec-13 06:03N 29°47' W 095°06'0 0.0
2017-Dec-13 06:00N 29°47' W 095°06'0 0.0
2017-Dec-13 05:14N 29°47' W 095°06'0 0.0
2017-Dec-13 04:00N 29°47' W 095°06'1 0.1
2017-Dec-12 14:32N 29°46' W 095°06'0 0.4
2017-Dec-12 14:16N 29°46' W 095°06'0 0.3
2017-Dec-12 14:00N 29°46' W 095°06'1 0.3
2017-Dec-12 10:52N 29°47' W 095°06'0 0.0
2017-Dec-12 10:30N 29°47' W 095°06'0 0.0
2017-Dec-12 08:22N 29°47' W 095°06'0 0.0
2017-Dec-12 07:35N 29°47' W 095°06'0 0.0
2017-Dec-12 07:26N 29°47' W 095°06'0 0.0
2017-Dec-12 06:57N 29°47' W 095°06'0 0.0
2017-Dec-12 06:30N 29°47' W 095°06'0 0.0
2017-Dec-12 05:59N 29°47' W 095°06'  
Track history (hours):
 
Tides and Currents Weather Stations Pressure Air Temp Water Temp Dewpoint Dewpoint Depression Visibility Wind Speed Wind Dir Waves Ship Positions

MiSS Danielle

Owner: Chem Carriers Towing, LLC, Sunshine, LA. More information available from US FCC via Universal Licensing System and Coast Guard Vessel Documentation Center.

Last reported at 2017-Dec-21 20:23 UTC. Time now 2018-Jan-18 07:23 UTC.
Position N 29°33' W 090°24'.
Warning: this ship's position is 27 days out of date.

Length 24 m; draft 2.9 m.

Type: Towing. MMSI: 367578080.

Date/timePositionNaut miles runAvg speedWind from/ knotsBaromVisibWave heightAir tempDewpointWater temp
2017-Dec-21 20:23N 29°33' W 090°24'3 6.2
2017-Dec-21 19:59N 29°33' W 090°27'3 6.2
2017-Dec-21 19:30N 29°34' W 090°31'3 6.0
2017-Dec-21 19:00N 29°34' W 090°34'3 5.5
2017-Dec-21 18:30N 29°35' W 090°37'3 5.6
2017-Dec-21 18:00N 29°36' W 090°40'2 3.7
2017-Dec-21 17:30N 29°37' W 090°42'1 2.7
2017-Dec-21 17:00N 29°36' W 090°43'2 3.2
2017-Dec-21 16:30N 29°34' W 090°43'2 4.7
2017-Dec-21 16:00N 29°33' W 090°45'3 5.9
2017-Dec-21 15:30N 29°32' W 090°49'3 6.2
2017-Dec-21 14:59N 29°32' W 090°52'2 3.5
2017-Dec-21 14:30N 29°33' W 090°54'0 0.0
2017-Dec-21 14:00N 29°33' W 090°54'0 0.0
2017-Dec-21 13:30N 29°33' W 090°54'0 0.0
2017-Dec-21 13:00N 29°33' W 090°54'0 0.0
2017-Dec-21 12:30N 29°33' W 090°54'0 0.0
2017-Dec-21 12:00N 29°33' W 090°54'0 0.0
2017-Dec-21 11:30N 29°33' W 090°54'0 0.0
2017-Dec-21 11:00N 29°33' W 090°54'0 0.0
2017-Dec-21 10:30N 29°33' W 090°54'0 0.0
2017-Dec-21 10:00N 29°33' W 090°54'0 0.0
2017-Dec-21 09:30N 29°33' W 090°54'0 0.0
2017-Dec-21 09:00N 29°33' W 090°54'0 0.0
2017-Dec-21 08:30N 29°33' W 090°54'0 0.0
2017-Dec-21 08:00N 29°33' W 090°54'0 0.0
2017-Dec-21 07:30N 29°33' W 090°54'0 0.0
2017-Dec-21 07:00N 29°33' W 090°54'0 0.0
2017-Dec-21 06:30N 29°33' W 090°54'0 0.0
2017-Dec-21 06:00N 29°33' W 090°54'1 1.4
2017-Dec-21 05:30N 29°33' W 090°55'3 6.4
2017-Dec-21 04:59N 29°35' W 090°58'3 5.9
2017-Dec-21 04:30N 29°37' W 090°60'3 6.2
2017-Dec-21 03:59N 29°37' W 091°04'46 4.5
2017-Dec-20 17:46N 29°51' W 091°54'2 6.5
2017-Dec-20 17:30N 29°51' W 091°57'3 6.3
2017-Dec-20 17:00N 29°50' W 091°60'3 6.4
2017-Dec-20 16:30N 29°49' W 092°03'3 5.5
2017-Dec-20 16:00N 29°48' W 092°06'3 5.7
2017-Dec-20 15:30N 29°47' W 092°10'3 5.1
2017-Dec-20 15:00N 29°47' W 092°12'2 4.2
2017-Dec-20 14:30N 29°48' W 092°15'3 5.3
2017-Dec-20 14:00N 29°49' W 092°17'2 3.8
2017-Dec-20 13:30N 29°50' W 092°19'2 3.2
2017-Dec-20 12:58N 29°51' W 092°21'38 2.0
2017-Dec-19 18:26N 29°56' W 093°04'2 5.2
2017-Dec-19 18:00N 29°56' W 093°07'3 5.2
2017-Dec-19 17:30N 29°57' W 093°10'3 5.4
2017-Dec-19 17:00N 29°59' W 093°12'2 3.6
2017-Dec-19 16:30N 29°60' W 093°13'0 0.0
2017-Dec-19 16:00N 29°60' W 093°13'1 1.9
2017-Dec-19 15:30N 30°01' W 093°14'2 4.6
2017-Dec-19 15:00N 30°02' W 093°16'2 4.8
2017-Dec-19 14:30N 30°05' W 093°17'0 0.2
2017-Dec-19 14:00N 30°05' W 093°17'0 0.1
2017-Dec-19 13:30N 30°05' W 093°17'0 0.1
2017-Dec-19 13:01N 30°05' W 093°17'0 0.9
2017-Dec-19 12:31N 30°05' W 093°17'0 0.1
2017-Dec-19 12:00N 30°05' W 093°17'0 0.0
2017-Dec-19 11:30N 30°05' W 093°17'0 0.0
2017-Dec-19 11:00N 30°05' W 093°17'0 0.0
2017-Dec-19 10:30N 30°05' W 093°17'0 0.0
2017-Dec-19 10:00N 30°05' W 093°17'0 0.1
2017-Dec-19 09:30N 30°05' W 093°17'1 1.4
2017-Dec-19 09:00N 30°05' W 093°18'1 1.5
2017-Dec-19 08:30N 30°06' W 093°18'0 0.1
2017-Dec-19 08:00N 30°06' W 093°18'0 0.0
2017-Dec-19 07:30N 30°06' W 093°18'0 0.0
2017-Dec-19 07:00N 30°06' W 093°18'0 0.0
2017-Dec-19 06:31N 30°06' W 093°18'0 0.0
2017-Dec-19 06:00N 30°06' W 093°18'1 1.0
2017-Dec-19 05:30N 30°06' W 093°19'0 0.4
2017-Dec-19 05:00N 30°06' W 093°19'0 0.0
2017-Dec-19 04:30N 30°06' W 093°19'0 0.0
2017-Dec-19 04:00N 30°06' W 093°19'0 0.0
2017-Dec-19 03:30N 30°06' W 093°19'0 0.0
2017-Dec-19 03:00N 30°06' W 093°19'0 0.0
2017-Dec-19 02:30N 30°06' W 093°19'0 0.0
2017-Dec-19 02:00N 30°06' W 093°19'0 0.1
2017-Dec-19 01:30N 30°06' W 093°19'0 0.0
2017-Dec-19 01:00N 30°06' W 093°19'0 0.0
2017-Dec-19 00:30N 30°06' W 093°19'0 0.0
2017-Dec-19 00:00N 30°06' W 093°19'0 0.0
2017-Dec-18 23:30N 30°06' W 093°19'0 0.0
2017-Dec-18 23:00N 30°06' W 093°19'0 0.0
2017-Dec-18 22:30N 30°06' W 093°19'0 0.2
2017-Dec-18 22:00N 30°06' W 093°19'3 5.2
2017-Dec-18 21:30N 30°04' W 093°21'2 4.6
2017-Dec-18 21:00N 30°04' W 093°24'3 5.5
2017-Dec-18 20:30N 30°04' W 093°27'3 5.6
2017-Dec-18 20:00N 30°04' W 093°30'3 5.1
2017-Dec-18 19:30N 30°04' W 093°33'3 5.6
2017-Dec-18 19:00N 30°04' W 093°36'3 5.3
2017-Dec-18 18:30N 30°04' W 093°39'2 3.5
2017-Dec-18 18:00N 30°04' W 093°41'70 4.1
2017-Dec-18 00:57N 29°28' W 094°51'3 5.9
2017-Dec-18 00:30N 29°30' W 094°53'3 5.9
2017-Dec-18 00:00N 29°33' W 094°54'3 6.5
2017-Dec-17 23:30N 29°35' W 094°56'3 6.4
2017-Dec-17 23:00N 29°38' W 094°58'3 6.5
2017-Dec-17 22:30N 29°41' W 094°59'3 5.8
2017-Dec-17 22:00N 29°44' W 095°01'3 6.0
2017-Dec-17 21:30N 29°45' W 095°04'2 3.5
2017-Dec-17 20:58N 29°46' W 095°06'1 1.1
2017-Dec-17 20:30N 29°47' W 095°06'0 0.1
2017-Dec-17 19:57N 29°47' W 095°06'0 0.1
2017-Dec-17 17:57N 29°47' W 095°06'0 0.1
2017-Dec-17 14:05N 29°47' W 095°06'0 0.0
2017-Dec-17 13:59N 29°47' W 095°06'0 0.0
2017-Dec-17 13:20N 29°47' W 095°06'1 0.7
2017-Dec-17 12:21N 29°46' W 095°06'0 0.0
2017-Dec-17 08:56N 29°46' W 095°06'2 3.5
2017-Dec-17 08:30N 29°45' W 095°06'3 6.6
2017-Dec-17 08:00N 29°45' W 095°10'3 6.6
2017-Dec-17 07:30N 29°44' W 095°14'0 0.4
2017-Dec-17 07:00N 29°44' W 095°14'0 0.0
2017-Dec-17 06:30N 29°44' W 095°14'0 0.0
2017-Dec-17 06:00N 29°44' W 095°14'0 0.0
2017-Dec-17 05:29N 29°44' W 095°14'0 0.0
2017-Dec-17 05:00N 29°44' W 095°14'0 0.0
2017-Dec-17 04:30N 29°44' W 095°14'0 0.0
2017-Dec-17 03:59N 29°44' W 095°14'0 0.0
2017-Dec-17 03:30N 29°44' W 095°14'0 0.0
2017-Dec-17 02:58N 29°44' W 095°14'0 0.0
2017-Dec-17 02:15N 29°44' W 095°14'0 0.0
2017-Dec-17 01:30N 29°44' W 095°14'0 0.0
2017-Dec-17 01:00N 29°44' W 095°14'0 0.0
2017-Dec-17 00:26N 29°44' W 095°14'0 0.0
2017-Dec-16 23:56N 29°44' W 095°14'0 0.0
2017-Dec-16 23:21N 29°44' W 095°14'0 0.0
2017-Dec-16 22:55N 29°44' W 095°14'0 0.0
2017-Dec-16 22:22N 29°44' W 095°14'0 0.0
2017-Dec-16 22:00N 29°44' W 095°14'0 0.0
2017-Dec-16 21:30N 29°44' W 095°14'0 0.0
2017-Dec-16 20:54N 29°44' W 095°14'0 0.0
2017-Dec-16 20:25N 29°44' W 095°14'1 1.5
2017-Dec-16 20:00N 29°43' W 095°14'1 1.2
2017-Dec-16 19:30N 29°43' W 095°14'2 4.4
2017-Dec-16 18:58N 29°45' W 095°11'4 6.6
2017-Dec-16 18:21N 29°44' W 095°07'2 0.8
2017-Dec-16 15:58N 29°46' W 095°06'1 0.3
2017-Dec-16 14:00N 29°47' W 095°06'0 0.0
2017-Dec-16 11:12N 29°47' W 095°06'0 0.0
2017-Dec-16 10:50N 29°47' W 095°06'0 0.0
2017-Dec-16 09:54N 29°47' W 095°06'0 0.0
2017-Dec-16 09:22N 29°47' W 095°06'0 0.0
2017-Dec-15 00:07N 29°47' W 095°06'0 0.0
2017-Dec-14 17:47N 29°47' W 095°06'0 0.1
2017-Dec-14 15:37N 29°47' W 095°06'0 0.0
2017-Dec-14 15:00N 29°47' W 095°06'0 0.0
2017-Dec-14 12:57N 29°47' W 095°06'0 0.0
2017-Dec-14 12:19N 29°47' W 095°06'0 0.0
2017-Dec-14 10:13N 29°47' W 095°06'0 0.0
2017-Dec-14 09:58N 29°47' W 095°06'0 0.0
2017-Dec-14 09:26N 29°47' W 095°06'0 0.0
2017-Dec-14 08:49N 29°47' W 095°06'0 0.0
2017-Dec-14 08:24N 29°47' W 095°06'0 0.0
2017-Dec-14 07:20N 29°47' W 095°06'0 0.0
2017-Dec-14 06:59N 29°47' W 095°06'0 0.0
2017-Dec-14 06:29N 29°47' W 095°06'0 0.0
2017-Dec-14 05:54N 29°47' W 095°06'0 0.0
2017-Dec-14 05:27N 29°47' W 095°06'0 0.0
2017-Dec-14 05:00N 29°47' W 095°06'0 0.0
2017-Dec-14 03:57N 29°47' W 095°06'0 0.0
2017-Dec-14 03:15N 29°47' W 095°06'0 0.0
2017-Dec-14 03:00N 29°47' W 095°06'0 0.0
2017-Dec-14 02:28N 29°47' W 095°06'0 0.0
2017-Dec-14 01:51N 29°47' W 095°06'0 0.0
2017-Dec-13 23:35N 29°47' W 095°06'1 0.1
2017-Dec-13 15:18N 29°46' W 095°06'1 1.6
2017-Dec-13 14:58N 29°47' W 095°06'0 0.0
2017-Dec-13 14:25N 29°47' W 095°06'0 0.0
2017-Dec-13 13:54N 29°47' W 095°06'0 0.0
2017-Dec-13 13:30N 29°47' W 095°06'0 0.0
2017-Dec-13 12:55N 29°47' W 095°06'0 0.0
2017-Dec-13 12:13N 29°47' W 095°06'0 0.0
2017-Dec-13 12:00N 29°47' W 095°06'0 0.0
2017-Dec-13 11:16N 29°47' W 095°06'0 0.0
2017-Dec-13 10:56N 29°47' W 095°06'0 0.0
2017-Dec-13 10:27N 29°47' W 095°06'0 0.0
2017-Dec-13 10:00N 29°47' W 095°06'0 0.0
2017-Dec-13 06:31N 29°47' W 095°06'0 0.0
2017-Dec-13 06:03N 29°47' W 095°06'0 0.0
2017-Dec-13 06:00N 29°47' W 095°06'0 0.0
2017-Dec-13 05:14N 29°47' W 095°06'0 0.0
2017-Dec-13 04:00N 29°47' W 095°06'1 0.1
2017-Dec-12 14:32N 29°46' W 095°06'0 0.4
2017-Dec-12 14:16N 29°46' W 095°06'0 0.3
2017-Dec-12 14:00N 29°46' W 095°06'1 0.3
2017-Dec-12 10:52N 29°47' W 095°06'0 0.0
2017-Dec-12 10:30N 29°47' W 095°06'0 0.0
2017-Dec-12 08:22N 29°47' W 095°06'0 0.0
2017-Dec-12 07:35N 29°47' W 095°06'0 0.0
2017-Dec-12 07:26N 29°47' W 095°06'0 0.0
2017-Dec-12 06:57N 29°47' W 095°06'0 0.0
2017-Dec-12 06:30N 29°47' W 095°06'0 0.0
2017-Dec-12 05:59N 29°47' W 095°06'  

Dump ship's entire track history